sensor_id;sensor_type;location;lat;lon;timestamp;P1;durP1;ratioP1;P2;durP2;ratioP2
36411;SDS011;22445;52.100;5.176;2023-03-16T00:02:00;2.55;;;1.42;;
36411;SDS011;22445;52.100;5.176;2023-03-16T00:04:26;0.57;;;0.52;;
36411;SDS011;22445;52.100;5.176;2023-03-16T00:06:51;3.08;;;1.50;;
36411;SDS011;22445;52.100;5.176;2023-03-16T00:09:17;3.45;;;1.23;;
36411;SDS011;22445;52.100;5.176;2023-03-16T00:11:42;7.90;;;2.33;;
36411;SDS011;22445;52.100;5.176;2023-03-16T00:14:08;7.07;;;3.80;;
36411;SDS011;22445;52.100;5.176;2023-03-16T00:16:33;8.60;;;4.22;;
36411;SDS011;22445;52.100;5.176;2023-03-16T00:19:01;4.63;;;3.63;;
36411;SDS011;22445;52.100;5.176;2023-03-16T00:21:27;6.03;;;3.72;;
36411;SDS011;22445;52.100;5.176;2023-03-16T00:23:54;7.05;;;4.32;;
36411;SDS011;22445;52.100;5.176;2023-03-16T00:26:20;6.25;;;4.00;;
36411;SDS011;22445;52.100;5.176;2023-03-16T00:28:46;5.90;;;4.03;;
36411;SDS011;22445;52.100;5.176;2023-03-16T00:31:12;6.90;;;4.90;;
36411;SDS011;22445;52.100;5.176;2023-03-16T00:33:38;7.63;;;4.47;;
36411;SDS011;22445;52.100;5.176;2023-03-16T00:36:04;7.97;;;3.88;;
36411;SDS011;22445;52.100;5.176;2023-03-16T00:38:34;6.57;;;4.40;;
36411;SDS011;22445;52.100;5.176;2023-03-16T00:41:01;7.05;;;4.85;;
36411;SDS011;22445;52.100;5.176;2023-03-16T00:43:34;5.30;;;3.85;;
36411;SDS011;22445;52.100;5.176;2023-03-16T00:46:07;5.07;;;4.47;;
36411;SDS011;22445;52.100;5.176;2023-03-16T00:48:33;7.25;;;4.40;;
36411;SDS011;22445;52.100;5.176;2023-03-16T00:51:04;9.20;;;4.97;;
36411;SDS011;22445;52.100;5.176;2023-03-16T00:53:31;6.22;;;4.35;;
36411;SDS011;22445;52.100;5.176;2023-03-16T00:55:58;4.55;;;3.85;;
36411;SDS011;22445;52.100;5.176;2023-03-16T00:58:24;7.22;;;5.10;;
36411;SDS011;22445;52.100;5.176;2023-03-16T01:00:49;5.18;;;4.43;;
36411;SDS011;22445;52.100;5.176;2023-03-16T01:03:17;8.48;;;4.57;;
36411;SDS011;22445;52.100;5.176;2023-03-16T01:05:43;7.43;;;5.05;;
36411;SDS011;22445;52.100;5.176;2023-03-16T01:08:09;6.25;;;4.40;;
36411;SDS011;22445;52.100;5.176;2023-03-16T01:10:35;6.88;;;4.75;;
36411;SDS011;22445;52.100;5.176;2023-03-16T01:13:01;7.75;;;4.75;;
36411;SDS011;22445;52.100;5.176;2023-03-16T01:15:30;7.95;;;4.57;;
36411;SDS011;22445;52.100;5.176;2023-03-16T01:17:55;8.80;;;5.13;;
36411;SDS011;22445;52.100;5.176;2023-03-16T01:20:21;7.70;;;5.13;;
36411;SDS011;22445;52.100;5.176;2023-03-16T01:22:47;9.82;;;4.63;;
36411;SDS011;22445;52.100;5.176;2023-03-16T01:25:13;9.63;;;5.15;;
36411;SDS011;22445;52.100;5.176;2023-03-16T01:27:38;10.27;;;4.45;;
36411;SDS011;22445;52.100;5.176;2023-03-16T01:30:05;5.43;;;4.65;;
36411;SDS011;22445;52.100;5.176;2023-03-16T01:32:31;9.80;;;4.90;;
36411;SDS011;22445;52.100;5.176;2023-03-16T01:34:56;10.75;;;4.85;;
36411;SDS011;22445;52.100;5.176;2023-03-16T01:37:22;6.82;;;4.05;;
36411;SDS011;22445;52.100;5.176;2023-03-16T01:39:48;9.15;;;5.45;;
36411;SDS011;22445;52.100;5.176;2023-03-16T01:42:13;7.53;;;4.82;;
36411;SDS011;22445;52.100;5.176;2023-03-16T01:44:53;6.47;;;4.88;;
36411;SDS011;22445;52.100;5.176;2023-03-16T01:47:26;6.22;;;4.45;;
36411;SDS011;22445;52.100;5.176;2023-03-16T01:49:52;7.97;;;5.05;;
36411;SDS011;22445;52.100;5.176;2023-03-16T01:52:21;9.75;;;4.65;;
36411;SDS011;22445;52.100;5.176;2023-03-16T01:57:35;9.30;;;5.38;;
36411;SDS011;22445;52.100;5.176;2023-03-16T02:00:10;6.88;;;5.15;;
36411;SDS011;22445;52.100;5.176;2023-03-16T02:02:59;5.32;;;4.05;;
36411;SDS011;22445;52.100;5.176;2023-03-16T02:08:17;7.43;;;4.85;;
36411;SDS011;22445;52.100;5.176;2023-03-16T02:10:43;6.30;;;4.47;;
36411;SDS011;22445;52.100;5.176;2023-03-16T02:13:10;7.45;;;4.60;;
36411;SDS011;22445;52.100;5.176;2023-03-16T02:15:36;8.45;;;4.85;;
36411;SDS011;22445;52.100;5.176;2023-03-16T02:18:03;6.60;;;4.65;;
36411;SDS011;22445;52.100;5.176;2023-03-16T02:23:17;7.38;;;5.13;;
36411;SDS011;22445;52.100;5.176;2023-03-16T02:29:05;9.30;;;4.82;;
36411;SDS011;22445;52.100;5.176;2023-03-16T02:31:37;9.90;;;4.75;;
36411;SDS011;22445;52.100;5.176;2023-03-16T02:34:03;6.15;;;4.80;;
36411;SDS011;22445;52.100;5.176;2023-03-16T02:36:29;6.18;;;4.70;;
36411;SDS011;22445;52.100;5.176;2023-03-16T02:38:54;10.20;;;4.57;;
36411;SDS011;22445;52.100;5.176;2023-03-16T02:41:20;10.57;;;5.05;;
36411;SDS011;22445;52.100;5.176;2023-03-16T02:43:47;6.50;;;4.97;;
36411;SDS011;22445;52.100;5.176;2023-03-16T02:46:19;6.30;;;4.90;;
36411;SDS011;22445;52.100;5.176;2023-03-16T02:51:52;6.10;;;5.13;;
36411;SDS011;22445;52.100;5.176;2023-03-16T02:54:18;9.18;;;4.53;;
36411;SDS011;22445;52.100;5.176;2023-03-16T02:56:44;7.53;;;5.13;;
36411;SDS011;22445;52.100;5.176;2023-03-16T02:59:09;6.03;;;4.35;;
36411;SDS011;22445;52.100;5.176;2023-03-16T03:01:36;5.22;;;4.65;;
36411;SDS011;22445;52.100;5.176;2023-03-16T03:04:02;8.55;;;4.97;;
36411;SDS011;22445;52.100;5.176;2023-03-16T03:06:28;8.27;;;4.60;;
36411;SDS011;22445;52.100;5.176;2023-03-16T03:08:54;7.60;;;4.53;;
36411;SDS011;22445;52.100;5.176;2023-03-16T03:11:20;6.35;;;4.97;;
36411;SDS011;22445;52.100;5.176;2023-03-16T03:13:46;0.40;;;0.35;;
36411;SDS011;22445;52.100;5.176;2023-03-16T03:16:12;3.83;;;1.83;;
36411;SDS011;22445;52.100;5.176;2023-03-16T03:18:37;0.00;;;0.00;;
36411;SDS011;22445;52.100;5.176;2023-03-16T03:21:03;0.57;;;0.55;;
36411;SDS011;22445;52.100;5.176;2023-03-16T03:23:29;9.02;;;4.68;;
36411;SDS011;22445;52.100;5.176;2023-03-16T03:25:56;11.50;;;5.45;;
36411;SDS011;22445;52.100;5.176;2023-03-16T03:28:22;7.60;;;5.07;;
36411;SDS011;22445;52.100;5.176;2023-03-16T03:30:48;0.20;;;0.10;;
36411;SDS011;22445;52.100;5.176;2023-03-16T03:33:13;2.40;;;2.00;;
36411;SDS011;22445;52.100;5.176;2023-03-16T03:35:39;7.03;;;1.83;;
36411;SDS011;22445;52.100;5.176;2023-03-16T03:38:06;0.10;;;0.10;;
36411;SDS011;22445;52.100;5.176;2023-03-16T03:40:32;2.65;;;0.85;;
36411;SDS011;22445;52.100;5.176;2023-03-16T03:42:58;1.52;;;0.80;;
36411;SDS011;22445;52.100;5.176;2023-03-16T03:45:25;0.85;;;0.65;;
36411;SDS011;22445;52.100;5.176;2023-03-16T03:47:51;1.95;;;0.88;;
36411;SDS011;22445;52.100;5.176;2023-03-16T03:50:17;0.95;;;0.40;;
36411;SDS011;22445;52.100;5.176;2023-03-16T03:52:43;0.00;;;0.00;;
36411;SDS011;22445;52.100;5.176;2023-03-16T03:55:08;0.50;;;0.40;;
36411;SDS011;22445;52.100;5.176;2023-03-16T03:57:35;1.40;;;0.57;;
36411;SDS011;22445;52.100;5.176;2023-03-16T04:00:00;1.13;;;0.30;;
36411;SDS011;22445;52.100;5.176;2023-03-16T04:02:26;0.73;;;0.45;;
36411;SDS011;22445;52.100;5.176;2023-03-16T04:04:51;0.63;;;0.63;;
36411;SDS011;22445;52.100;5.176;2023-03-16T04:07:17;2.90;;;0.40;;
36411;SDS011;22445;52.100;5.176;2023-03-16T04:09:43;1.00;;;0.73;;
36411;SDS011;22445;52.100;5.176;2023-03-16T04:12:09;0.55;;;0.45;;
36411;SDS011;22445;52.100;5.176;2023-03-16T04:14:35;0.05;;;0.05;;
36411;SDS011;22445;52.100;5.176;2023-03-16T04:17:01;0.45;;;0.38;;
36411;SDS011;22445;52.100;5.176;2023-03-16T04:19:28;10.98;;;1.38;;
36411;SDS011;22445;52.100;5.176;2023-03-16T04:21:54;0.15;;;0.15;;
36411;SDS011;22445;52.100;5.176;2023-03-16T04:24:19;1.05;;;0.95;;
36411;SDS011;22445;52.100;5.176;2023-03-16T04:26:46;0.43;;;0.43;;
36411;SDS011;22445;52.100;5.176;2023-03-16T04:29:12;0.00;;;0.00;;
36411;SDS011;22445;52.100;5.176;2023-03-16T04:31:39;1.08;;;0.80;;
36411;SDS011;22445;52.100;5.176;2023-03-16T04:34:06;0.63;;;0.52;;
36411;SDS011;22445;52.100;5.176;2023-03-16T04:36:32;1.65;;;0.75;;
36411;SDS011;22445;52.100;5.176;2023-03-16T04:38:58;1.48;;;0.70;;
36411;SDS011;22445;52.100;5.176;2023-03-16T04:41:23;3.60;;;1.55;;
36411;SDS011;22445;52.100;5.176;2023-03-16T04:43:49;2.25;;;1.52;;
36411;SDS011;22445;52.100;5.176;2023-03-16T04:46:15;2.10;;;1.60;;
36411;SDS011;22445;52.100;5.176;2023-03-16T04:48:40;2.65;;;1.17;;
36411;SDS011;22445;52.100;5.176;2023-03-16T04:51:06;1.83;;;1.38;;
36411;SDS011;22445;52.100;5.176;2023-03-16T04:53:31;2.90;;;2.45;;
36411;SDS011;22445;52.100;5.176;2023-03-16T04:55:57;4.68;;;3.30;;
36411;SDS011;22445;52.100;5.176;2023-03-16T04:58:23;5.07;;;2.05;;
36411;SDS011;22445;52.100;5.176;2023-03-16T05:00:52;3.58;;;0.68;;
36411;SDS011;22445;52.100;5.176;2023-03-16T05:03:18;1.10;;;0.63;;
36411;SDS011;22445;52.100;5.176;2023-03-16T05:05:44;1.23;;;0.68;;
36411;SDS011;22445;52.100;5.176;2023-03-16T05:08:11;0.73;;;0.50;;
36411;SDS011;22445;52.100;5.176;2023-03-16T05:10:37;0.60;;;0.45;;
36411;SDS011;22445;52.100;5.176;2023-03-16T05:13:03;1.50;;;1.20;;
36411;SDS011;22445;52.100;5.176;2023-03-16T05:15:29;0.38;;;0.35;;
36411;SDS011;22445;52.100;5.176;2023-03-16T05:17:55;2.75;;;1.20;;
36411;SDS011;22445;52.100;5.176;2023-03-16T05:20:21;0.47;;;0.45;;
36411;SDS011;22445;52.100;5.176;2023-03-16T05:22:48;3.58;;;0.80;;
36411;SDS011;22445;52.100;5.176;2023-03-16T05:25:15;0.85;;;0.73;;
36411;SDS011;22445;52.100;5.176;2023-03-16T05:27:42;0.28;;;0.20;;
36411;SDS011;22445;52.100;5.176;2023-03-16T05:30:18;3.60;;;1.02;;
36411;SDS011;22445;52.100;5.176;2023-03-16T05:32:44;0.75;;;0.75;;
36411;SDS011;22445;52.100;5.176;2023-03-16T05:35:10;1.90;;;0.70;;
36411;SDS011;22445;52.100;5.176;2023-03-16T05:37:38;3.63;;;1.67;;
36411;SDS011;22445;52.100;5.176;2023-03-16T05:40:04;5.32;;;3.17;;
36411;SDS011;22445;52.100;5.176;2023-03-16T05:42:53;2.47;;;1.70;;
36411;SDS011;22445;52.100;5.176;2023-03-16T05:45:19;1.50;;;1.00;;
36411;SDS011;22445;52.100;5.176;2023-03-16T05:47:45;10.32;;;2.08;;
36411;SDS011;22445;52.100;5.176;2023-03-16T05:50:11;1.95;;;0.77;;
36411;SDS011;22445;52.100;5.176;2023-03-16T05:52:38;1.15;;;1.00;;
36411;SDS011;22445;52.100;5.176;2023-03-16T05:55:05;0.00;;;0.00;;
36411;SDS011;22445;52.100;5.176;2023-03-16T05:57:32;2.25;;;0.77;;
36411;SDS011;22445;52.100;5.176;2023-03-16T05:59:58;1.17;;;0.90;;
36411;SDS011;22445;52.100;5.176;2023-03-16T06:02:26;0.20;;;0.17;;
36411;SDS011;22445;52.100;5.176;2023-03-16T06:04:51;10.98;;;2.13;;
36411;SDS011;22445;52.100;5.176;2023-03-16T06:07:17;1.75;;;1.65;;
36411;SDS011;22445;52.100;5.176;2023-03-16T06:09:43;3.10;;;1.70;;
36411;SDS011;22445;52.100;5.176;2023-03-16T06:12:08;0.45;;;0.43;;
36411;SDS011;22445;52.100;5.176;2023-03-16T06:14:34;1.98;;;1.30;;
36411;SDS011;22445;52.100;5.176;2023-03-16T06:17:00;1.63;;;1.23;;
36411;SDS011;22445;52.100;5.176;2023-03-16T06:19:26;2.63;;;1.70;;
36411;SDS011;22445;52.100;5.176;2023-03-16T06:21:51;1.98;;;1.60;;
36411;SDS011;22445;52.100;5.176;2023-03-16T06:24:17;3.88;;;1.23;;
36411;SDS011;22445;52.100;5.176;2023-03-16T06:26:43;4.38;;;1.90;;
36411;SDS011;22445;52.100;5.176;2023-03-16T06:29:08;5.00;;;2.40;;
36411;SDS011;22445;52.100;5.176;2023-03-16T06:31:34;0.88;;;0.85;;
36411;SDS011;22445;52.100;5.176;2023-03-16T06:34:00;3.88;;;1.65;;
36411;SDS011;22445;52.100;5.176;2023-03-16T06:36:26;0.70;;;0.70;;
36411;SDS011;22445;52.100;5.176;2023-03-16T06:38:51;2.65;;;0.80;;
36411;SDS011;22445;52.100;5.176;2023-03-16T06:41:17;0.25;;;0.25;;
36411;SDS011;22445;52.100;5.176;2023-03-16T06:43:42;2.28;;;1.13;;
36411;SDS011;22445;52.100;5.176;2023-03-16T06:46:08;0.40;;;0.30;;
36411;SDS011;22445;52.100;5.176;2023-03-16T06:48:33;2.65;;;1.50;;
36411;SDS011;22445;52.100;5.176;2023-03-16T06:50:59;0.30;;;0.30;;
36411;SDS011;22445;52.100;5.176;2023-03-16T06:53:25;0.10;;;0.10;;
36411;SDS011;22445;52.100;5.176;2023-03-16T06:55:51;0.93;;;0.93;;
36411;SDS011;22445;52.100;5.176;2023-03-16T06:58:16;2.78;;;1.85;;
36411;SDS011;22445;52.100;5.176;2023-03-16T07:00:42;0.90;;;0.90;;
36411;SDS011;22445;52.100;5.176;2023-03-16T07:03:07;1.55;;;0.80;;
36411;SDS011;22445;52.100;5.176;2023-03-16T07:05:33;0.65;;;0.43;;
36411;SDS011;22445;52.100;5.176;2023-03-16T07:07:58;1.55;;;1.30;;
36411;SDS011;22445;52.100;5.176;2023-03-16T07:10:25;0.98;;;0.85;;
36411;SDS011;22445;52.100;5.176;2023-03-16T07:12:51;2.90;;;1.80;;
36411;SDS011;22445;52.100;5.176;2023-03-16T07:15:16;0.90;;;0.75;;
36411;SDS011;22445;52.100;5.176;2023-03-16T07:17:43;4.03;;;2.20;;
36411;SDS011;22445;52.100;5.176;2023-03-16T07:20:09;1.77;;;0.73;;
36411;SDS011;22445;52.100;5.176;2023-03-16T07:22:37;2.17;;;0.60;;
36411;SDS011;22445;52.100;5.176;2023-03-16T07:25:04;1.52;;;0.95;;
36411;SDS011;22445;52.100;5.176;2023-03-16T07:27:30;1.88;;;0.40;;
36411;SDS011;22445;52.100;5.176;2023-03-16T07:29:56;1.17;;;1.02;;
36411;SDS011;22445;52.100;5.176;2023-03-16T07:32:22;2.78;;;1.48;;
36411;SDS011;22445;52.100;5.176;2023-03-16T07:34:47;0.38;;;0.38;;
36411;SDS011;22445;52.100;5.176;2023-03-16T07:37:13;3.35;;;1.63;;
36411;SDS011;22445;52.100;5.176;2023-03-16T07:39:40;1.45;;;1.08;;
36411;SDS011;22445;52.100;5.176;2023-03-16T07:42:06;5.40;;;2.92;;
36411;SDS011;22445;52.100;5.176;2023-03-16T07:44:32;0.82;;;0.82;;
36411;SDS011;22445;52.100;5.176;2023-03-16T07:46:58;3.30;;;1.00;;
36411;SDS011;22445;52.100;5.176;2023-03-16T07:49:23;1.52;;;1.10;;
36411;SDS011;22445;52.100;5.176;2023-03-16T07:51:49;1.77;;;1.23;;
36411;SDS011;22445;52.100;5.176;2023-03-16T07:54:15;2.92;;;1.33;;
36411;SDS011;22445;52.100;5.176;2023-03-16T07:56:41;8.35;;;2.33;;
36411;SDS011;22445;52.100;5.176;2023-03-16T07:59:06;4.93;;;2.92;;
36411;SDS011;22445;52.100;5.176;2023-03-16T08:01:32;7.45;;;4.05;;
36411;SDS011;22445;52.100;5.176;2023-03-16T08:03:58;5.97;;;4.22;;
36411;SDS011;22445;52.100;5.176;2023-03-16T08:06:26;5.05;;;3.75;;
36411;SDS011;22445;52.100;5.176;2023-03-16T08:08:51;7.10;;;3.60;;
36411;SDS011;22445;52.100;5.176;2023-03-16T08:11:17;21.10;;;4.35;;
36411;SDS011;22445;52.100;5.176;2023-03-16T08:13:51;7.72;;;3.75;;
36411;SDS011;22445;52.100;5.176;2023-03-16T08:16:24;5.38;;;1.52;;
36411;SDS011;22445;52.100;5.176;2023-03-16T08:18:50;3.60;;;1.15;;
36411;SDS011;22445;52.100;5.176;2023-03-16T08:21:17;4.18;;;2.00;;
36411;SDS011;22445;52.100;5.176;2023-03-16T08:23:43;0.68;;;0.50;;
36411;SDS011;22445;52.100;5.176;2023-03-16T08:26:16;2.53;;;1.10;;
36411;SDS011;22445;52.100;5.176;2023-03-16T08:28:43;3.22;;;1.08;;
36411;SDS011;22445;52.100;5.176;2023-03-16T08:31:13;6.60;;;2.40;;
36411;SDS011;22445;52.100;5.176;2023-03-16T08:33:42;6.00;;;3.40;;
36411;SDS011;22445;52.100;5.176;2023-03-16T08:36:10;5.25;;;2.28;;
36411;SDS011;22445;52.100;5.176;2023-03-16T08:38:36;5.47;;;3.80;;
36411;SDS011;22445;52.100;5.176;2023-03-16T08:41:04;3.10;;;1.88;;
36411;SDS011;22445;52.100;5.176;2023-03-16T08:43:30;1.00;;;0.57;;
36411;SDS011;22445;52.100;5.176;2023-03-16T08:45:55;2.00;;;0.90;;
36411;SDS011;22445;52.100;5.176;2023-03-16T08:48:21;1.67;;;0.77;;
36411;SDS011;22445;52.100;5.176;2023-03-16T08:50:47;0.45;;;0.43;;
36411;SDS011;22445;52.100;5.176;2023-03-16T08:53:13;2.95;;;1.60;;
36411;SDS011;22445;52.100;5.176;2023-03-16T08:55:39;0.65;;;0.65;;
36411;SDS011;22445;52.100;5.176;2023-03-16T08:58:08;2.22;;;1.65;;
36411;SDS011;22445;52.100;5.176;2023-03-16T09:00:34;0.60;;;0.40;;
36411;SDS011;22445;52.100;5.176;2023-03-16T09:03:00;1.65;;;1.48;;
36411;SDS011;22445;52.100;5.176;2023-03-16T09:05:27;0.30;;;0.28;;
36411;SDS011;22445;52.100;5.176;2023-03-16T09:07:52;2.42;;;1.13;;
36411;SDS011;22445;52.100;5.176;2023-03-16T09:10:18;1.80;;;1.35;;
36411;SDS011;22445;52.100;5.176;2023-03-16T09:12:50;2.17;;;1.33;;
36411;SDS011;22445;52.100;5.176;2023-03-16T09:15:16;2.22;;;1.55;;
36411;SDS011;22445;52.100;5.176;2023-03-16T09:17:43;0.55;;;0.52;;
36411;SDS011;22445;52.100;5.176;2023-03-16T09:20:10;0.47;;;0.38;;
36411;SDS011;22445;52.100;5.176;2023-03-16T09:22:36;2.38;;;1.38;;
36411;SDS011;22445;52.100;5.176;2023-03-16T09:25:03;0.95;;;0.65;;
36411;SDS011;22445;52.100;5.176;2023-03-16T09:27:31;1.77;;;1.25;;
36411;SDS011;22445;52.100;5.176;2023-03-16T09:29:57;2.40;;;0.60;;
36411;SDS011;22445;52.100;5.176;2023-03-16T09:32:25;2.17;;;0.90;;
36411;SDS011;22445;52.100;5.176;2023-03-16T09:34:52;1.42;;;0.85;;
36411;SDS011;22445;52.100;5.176;2023-03-16T09:37:18;0.25;;;0.22;;
36411;SDS011;22445;52.100;5.176;2023-03-16T09:39:46;5.20;;;1.25;;
36411;SDS011;22445;52.100;5.176;2023-03-16T09:47:51;1.65;;;0.80;;
36411;SDS011;22445;52.100;5.176;2023-03-16T09:50:28;1.08;;;0.90;;
36411;SDS011;22445;52.100;5.176;2023-03-16T09:53:03;3.25;;;1.17;;
36411;SDS011;22445;52.100;5.176;2023-03-16T09:55:57;1.10;;;0.90;;
36411;SDS011;22445;52.100;5.176;2023-03-16T09:58:40;1.73;;;1.05;;
36411;SDS011;22445;52.100;5.176;2023-03-16T10:04:27;0.22;;;0.22;;
36411;SDS011;22445;52.100;5.176;2023-03-16T10:10:53;1.98;;;1.38;;
36411;SDS011;22445;52.100;5.176;2023-03-16T10:19:13;1.02;;;0.70;;
36411;SDS011;22445;52.100;5.176;2023-03-16T10:22:22;0.88;;;0.60;;
36411;SDS011;22445;52.100;5.176;2023-03-16T10:31:44;1.65;;;0.77;;
36411;SDS011;22445;52.100;5.176;2023-03-16T10:34:09;3.95;;;1.63;;
36411;SDS011;22445;52.100;5.176;2023-03-16T10:36:37;2.72;;;2.40;;
36411;SDS011;22445;52.100;5.176;2023-03-16T10:39:08;5.32;;;2.28;;
36411;SDS011;22445;52.100;5.176;2023-03-16T10:41:37;4.63;;;1.95;;
36411;SDS011;22445;52.100;5.176;2023-03-16T10:47:16;7.13;;;2.80;;
36411;SDS011;22445;52.100;5.176;2023-03-16T10:49:43;4.57;;;1.98;;
36411;SDS011;22445;52.100;5.176;2023-03-16T10:55:08;3.20;;;2.10;;
36411;SDS011;22445;52.100;5.176;2023-03-16T10:57:35;5.90;;;2.05;;
36411;SDS011;22445;52.100;5.176;2023-03-16T11:00:12;3.75;;;1.90;;
36411;SDS011;22445;52.100;5.176;2023-03-16T11:02:46;3.97;;;1.60;;
36411;SDS011;22445;52.100;5.176;2023-03-16T11:08:07;3.65;;;1.88;;
36411;SDS011;22445;52.100;5.176;2023-03-16T11:10:42;3.50;;;1.70;;
36411;SDS011;22445;52.100;5.176;2023-03-16T11:13:16;4.97;;;1.73;;
36411;SDS011;22445;52.100;5.176;2023-03-16T11:15:54;4.28;;;2.10;;
36411;SDS011;22445;52.100;5.176;2023-03-16T11:21:14;2.05;;;1.50;;
36411;SDS011;22445;52.100;5.176;2023-03-16T11:23:46;4.63;;;2.08;;
36411;SDS011;22445;52.100;5.176;2023-03-16T11:26:47;3.78;;;1.83;;
36411;SDS011;22445;52.100;5.176;2023-03-16T11:29:10;4.70;;;2.00;;
36411;SDS011;22445;52.100;5.176;2023-03-16T11:31:50;2.53;;;1.40;;
36411;SDS011;22445;52.100;5.176;2023-03-16T11:34:28;4.20;;;1.52;;
36411;SDS011;22445;52.100;5.176;2023-03-16T11:52:23;4.20;;;1.40;;
36411;SDS011;22445;52.100;5.176;2023-03-16T11:55:00;4.65;;;1.25;;
36411;SDS011;22445;52.100;5.176;2023-03-16T12:01:17;3.45;;;1.27;;
36411;SDS011;22445;52.100;5.176;2023-03-16T12:10:17;3.03;;;1.52;;
36411;SDS011;22445;52.100;5.176;2023-03-16T12:16:00;4.05;;;1.30;;
36411;SDS011;22445;52.100;5.176;2023-03-16T12:18:51;1.88;;;1.02;;
36411;SDS011;22445;52.100;5.176;2023-03-16T12:21:21;2.63;;;1.15;;
36411;SDS011;22445;52.100;5.176;2023-03-16T12:23:51;2.88;;;1.33;;
36411;SDS011;22445;52.100;5.176;2023-03-16T12:26:20;2.95;;;1.13;;
36411;SDS011;22445;52.100;5.176;2023-03-16T12:28:47;4.53;;;1.70;;
36411;SDS011;22445;52.100;5.176;2023-03-16T12:37:36;4.45;;;1.65;;
36411;SDS011;22445;52.100;5.176;2023-03-16T12:46:38;3.50;;;0.93;;
36411;SDS011;22445;52.100;5.176;2023-03-16T12:49:24;2.80;;;1.48;;
36411;SDS011;22445;52.100;5.176;2023-03-16T12:52:03;1.60;;;0.65;;
36411;SDS011;22445;52.100;5.176;2023-03-16T12:54:31;2.67;;;1.13;;
36411;SDS011;22445;52.100;5.176;2023-03-16T12:57:06;2.85;;;1.13;;
36411;SDS011;22445;52.100;5.176;2023-03-16T12:59:39;4.25;;;1.40;;
36411;SDS011;22445;52.100;5.176;2023-03-16T13:02:13;1.63;;;0.98;;
36411;SDS011;22445;52.100;5.176;2023-03-16T13:04:44;2.53;;;1.08;;
36411;SDS011;22445;52.100;5.176;2023-03-16T13:07:15;3.95;;;1.38;;
36411;SDS011;22445;52.100;5.176;2023-03-16T13:10:24;3.00;;;1.10;;
36411;SDS011;22445;52.100;5.176;2023-03-16T13:12:45;2.90;;;0.82;;
36411;SDS011;22445;52.100;5.176;2023-03-16T13:20:53;2.67;;;1.00;;
36411;SDS011;22445;52.100;5.176;2023-03-16T13:23:27;1.77;;;0.88;;
36411;SDS011;22445;52.100;5.176;2023-03-16T13:29:24;2.15;;;0.63;;
36411;SDS011;22445;52.100;5.176;2023-03-16T13:31:52;3.67;;;0.95;;
36411;SDS011;22445;52.100;5.176;2023-03-16T13:34:23;3.47;;;0.80;;
36411;SDS011;22445;52.100;5.176;2023-03-16T13:36:53;4.03;;;1.00;;
36411;SDS011;22445;52.100;5.176;2023-03-16T13:39:21;1.85;;;0.68;;
36411;SDS011;22445;52.100;5.176;2023-03-16T13:41:54;3.47;;;1.17;;
36411;SDS011;22445;52.100;5.176;2023-03-16T13:44:41;1.95;;;0.82;;
36411;SDS011;22445;52.100;5.176;2023-03-16T13:47:16;2.70;;;1.05;;
36411;SDS011;22445;52.100;5.176;2023-03-16T13:49:43;1.70;;;0.82;;
36411;SDS011;22445;52.100;5.176;2023-03-16T13:55:31;2.75;;;1.08;;
36411;SDS011;22445;52.100;5.176;2023-03-16T13:57:59;1.55;;;0.70;;
36411;SDS011;22445;52.100;5.176;2023-03-16T14:00:35;2.55;;;1.10;;
36411;SDS011;22445;52.100;5.176;2023-03-16T14:03:11;9.30;;;0.90;;
36411;SDS011;22445;52.100;5.176;2023-03-16T14:05:40;1.30;;;0.70;;
36411;SDS011;22445;52.100;5.176;2023-03-16T14:08:16;1.13;;;0.73;;
36411;SDS011;22445;52.100;5.176;2023-03-16T14:10:43;2.10;;;0.98;;
36411;SDS011;22445;52.100;5.176;2023-03-16T14:16:15;5.03;;;1.20;;
36411;SDS011;22445;52.100;5.176;2023-03-16T14:18:43;2.03;;;0.80;;
36411;SDS011;22445;52.100;5.176;2023-03-16T14:21:13;2.10;;;1.00;;
36411;SDS011;22445;52.100;5.176;2023-03-16T14:23:45;3.40;;;0.88;;
36411;SDS011;22445;52.100;5.176;2023-03-16T14:26:15;2.50;;;1.13;;
36411;SDS011;22445;52.100;5.176;2023-03-16T14:31:48;3.53;;;1.13;;
36411;SDS011;22445;52.100;5.176;2023-03-16T14:34:25;2.90;;;0.80;;
36411;SDS011;22445;52.100;5.176;2023-03-16T14:37:13;2.28;;;0.63;;
36411;SDS011;22445;52.100;5.176;2023-03-16T14:39:41;2.00;;;0.90;;
36411;SDS011;22445;52.100;5.176;2023-03-16T14:42:39;2.80;;;1.08;;
36411;SDS011;22445;52.100;5.176;2023-03-16T14:44:59;3.63;;;0.93;;
36411;SDS011;22445;52.100;5.176;2023-03-16T14:47:29;2.90;;;1.00;;
36411;SDS011;22445;52.100;5.176;2023-03-16T14:49:58;3.08;;;1.08;;
36411;SDS011;22445;52.100;5.176;2023-03-16T14:52:47;3.00;;;1.10;;
36411;SDS011;22445;52.100;5.176;2023-03-16T14:55:16;2.42;;;0.90;;
36411;SDS011;22445;52.100;5.176;2023-03-16T14:57:43;3.95;;;0.80;;
36411;SDS011;22445;52.100;5.176;2023-03-16T15:00:10;1.98;;;0.93;;
36411;SDS011;22445;52.100;5.176;2023-03-16T15:02:37;2.17;;;1.10;;
36411;SDS011;22445;52.100;5.176;2023-03-16T15:05:05;3.38;;;1.05;;
36411;SDS011;22445;52.100;5.176;2023-03-16T15:07:33;2.05;;;0.70;;
36411;SDS011;22445;52.100;5.176;2023-03-16T15:10:07;3.58;;;0.80;;
36411;SDS011;22445;52.100;5.176;2023-03-16T15:13:01;2.83;;;0.80;;
36411;SDS011;22445;52.100;5.176;2023-03-16T15:15:37;1.23;;;0.75;;
36411;SDS011;22445;52.100;5.176;2023-03-16T15:18:06;2.97;;;1.00;;
36411;SDS011;22445;52.100;5.176;2023-03-16T15:20:33;3.15;;;1.50;;
36411;SDS011;22445;52.100;5.176;2023-03-16T15:23:04;1.27;;;0.75;;
36411;SDS011;22445;52.100;5.176;2023-03-16T15:25:32;1.10;;;0.55;;
36411;SDS011;22445;52.100;5.176;2023-03-16T15:28:01;2.78;;;1.05;;
36411;SDS011;22445;52.100;5.176;2023-03-16T15:30:28;2.00;;;0.85;;
36411;SDS011;22445;52.100;5.176;2023-03-16T15:32:54;1.17;;;0.77;;
36411;SDS011;22445;52.100;5.176;2023-03-16T15:35:20;1.85;;;0.82;;
36411;SDS011;22445;52.100;5.176;2023-03-16T15:37:46;2.03;;;0.90;;
36411;SDS011;22445;52.100;5.176;2023-03-16T15:40:15;1.63;;;0.63;;
36411;SDS011;22445;52.100;5.176;2023-03-16T15:42:43;2.88;;;0.77;;
36411;SDS011;22445;52.100;5.176;2023-03-16T15:45:12;1.75;;;0.90;;
36411;SDS011;22445;52.100;5.176;2023-03-16T15:47:39;0.90;;;0.57;;
36411;SDS011;22445;52.100;5.176;2023-03-16T15:50:07;2.25;;;0.77;;
36411;SDS011;22445;52.100;5.176;2023-03-16T15:52:36;2.33;;;0.80;;
36411;SDS011;22445;52.100;5.176;2023-03-16T15:55:02;3.72;;;0.77;;
36411;SDS011;22445;52.100;5.176;2023-03-16T15:57:31;2.97;;;0.70;;
36411;SDS011;22445;52.100;5.176;2023-03-16T15:59:57;5.13;;;1.40;;
36411;SDS011;22445;52.100;5.176;2023-03-16T16:02:24;2.10;;;0.70;;
36411;SDS011;22445;52.100;5.176;2023-03-16T16:04:52;2.53;;;0.98;;
36411;SDS011;22445;52.100;5.176;2023-03-16T16:07:18;2.75;;;1.00;;
36411;SDS011;22445;52.100;5.176;2023-03-16T16:09:43;4.32;;;0.75;;
36411;SDS011;22445;52.100;5.176;2023-03-16T16:12:13;2.28;;;0.77;;
36411;SDS011;22445;52.100;5.176;2023-03-16T16:14:39;3.35;;;0.70;;
36411;SDS011;22445;52.100;5.176;2023-03-16T16:17:13;2.72;;;0.88;;
36411;SDS011;22445;52.100;5.176;2023-03-16T16:19:50;2.80;;;0.75;;
36411;SDS011;22445;52.100;5.176;2023-03-16T16:22:17;4.25;;;0.60;;
36411;SDS011;22445;52.100;5.176;2023-03-16T16:24:43;2.08;;;0.82;;
36411;SDS011;22445;52.100;5.176;2023-03-16T16:27:09;1.25;;;0.75;;
36411;SDS011;22445;52.100;5.176;2023-03-16T16:29:36;3.03;;;0.90;;
36411;SDS011;22445;52.100;5.176;2023-03-16T16:32:02;1.10;;;0.57;;
36411;SDS011;22445;52.100;5.176;2023-03-16T16:34:28;2.03;;;0.75;;
36411;SDS011;22445;52.100;5.176;2023-03-16T16:36:54;3.17;;;0.77;;
36411;SDS011;22445;52.100;5.176;2023-03-16T16:39:20;2.13;;;0.65;;
36411;SDS011;22445;52.100;5.176;2023-03-16T16:41:47;1.45;;;0.68;;
36411;SDS011;22445;52.100;5.176;2023-03-16T16:44:15;1.40;;;0.60;;
36411;SDS011;22445;52.100;5.176;2023-03-16T16:46:42;2.92;;;0.90;;
36411;SDS011;22445;52.100;5.176;2023-03-16T16:51:55;2.03;;;0.52;;